createdAt,value
2023-05-15T00:02:24.411Z,11.49
2023-05-15T00:07:45.307Z,11.39
2023-05-15T00:13:06.127Z,11.40
2023-05-15T00:18:27.385Z,11.38
2023-05-15T00:23:49.099Z,11.33
2023-05-15T00:29:10.279Z,11.37
2023-05-15T00:34:33.250Z,11.31
2023-05-15T00:39:54.187Z,11.30
2023-05-15T00:45:15.905Z,11.25
2023-05-15T00:50:37.200Z,11.15
2023-05-15T00:55:59.550Z,11.08
2023-05-15T01:01:20.453Z,11.04
2023-05-15T01:06:41.607Z,11.01
2023-05-15T01:12:04.968Z,11.15
2023-05-15T01:17:26.085Z,11.21
2023-05-15T01:23:00.598Z,11.14
2023-05-15T01:28:45.719Z,11.08
2023-05-15T01:34:09.737Z,11.07
2023-05-15T01:39:33.943Z,11.04
2023-05-15T01:44:57.044Z,11.07
2023-05-15T01:50:20.782Z,10.93
2023-05-15T01:55:42.644Z,10.82
2023-05-15T02:01:04.909Z,10.80
2023-05-15T02:06:26.163Z,10.78
2023-05-15T02:11:48.100Z,10.78
2023-05-15T02:17:09.125Z,10.81
2023-05-15T02:22:29.889Z,10.94
2023-05-15T02:28:00.762Z,10.87
2023-05-15T02:33:21.898Z,10.90
2023-05-15T02:38:49.305Z,10.90
2023-05-15T02:44:12.150Z,10.85
2023-05-15T02:49:33.424Z,10.78
2023-05-15T02:54:54.645Z,10.83
2023-05-15T03:00:16.344Z,10.83
2023-05-15T03:05:37.298Z,10.66
2023-05-15T03:10:58.373Z,10.66
2023-05-15T03:16:19.487Z,10.63
2023-05-15T03:21:40.588Z,10.61
2023-05-15T03:27:01.393Z,10.60
2023-05-15T03:32:23.237Z,10.57
2023-05-15T03:37:44.222Z,10.54
2023-05-15T03:43:06.397Z,10.56
2023-05-15T03:48:27.149Z,10.61
2023-05-15T03:53:47.915Z,10.56
2023-05-15T03:59:08.842Z,10.54
2023-05-15T04:04:29.753Z,10.60
2023-05-15T04:09:53.374Z,10.60
2023-05-15T04:15:22.989Z,10.59
2023-05-15T04:20:43.969Z,10.56
2023-05-15T04:26:04.872Z,10.56
2023-05-15T04:31:27.351Z,10.59
2023-05-15T04:36:51.465Z,10.59
2023-05-15T04:42:12.513Z,10.58
2023-05-15T04:47:33.369Z,10.61
2023-05-15T04:52:54.424Z,10.64
2023-05-15T04:58:15.070Z,10.72
2023-05-15T05:03:35.915Z,10.75
2023-05-15T05:08:58.469Z,10.78
2023-05-15T05:14:19.820Z,10.74
2023-05-15T05:19:42.216Z,10.70
2023-05-15T05:25:03.603Z,10.69
2023-05-15T05:30:24.700Z,10.68
2023-05-15T05:35:45.282Z,10.70
2023-05-15T05:41:06.241Z,10.70
2023-05-15T05:46:27.435Z,10.76
2023-05-15T05:51:48.673Z,10.69
2023-05-15T05:57:09.840Z,10.66
2023-05-15T06:02:31.300Z,10.67
2023-05-15T06:07:53.792Z,10.67
2023-05-15T06:13:15.283Z,10.79
2023-05-15T06:18:36.131Z,10.84
2023-05-15T06:23:56.873Z,10.78
2023-05-15T06:29:17.651Z,10.77
2023-05-15T06:34:38.462Z,10.66
2023-05-15T06:39:59.353Z,10.66
2023-05-15T06:45:20.003Z,10.72
2023-05-15T06:50:40.810Z,10.75
2023-05-15T06:56:01.760Z,10.76
2023-05-15T07:01:22.707Z,10.77
2023-05-15T07:06:43.602Z,10.74
2023-05-15T07:12:04.801Z,10.77
2023-05-15T07:17:25.721Z,10.73
2023-05-15T07:22:55.822Z,10.75
2023-05-15T07:28:19.147Z,10.79
2023-05-15T07:33:41.200Z,10.86
2023-05-15T07:39:02.105Z,10.88
2023-05-15T07:44:23.151Z,10.84
2023-05-15T07:49:47.382Z,10.92
2023-05-15T07:55:10.612Z,10.92
2023-05-15T08:00:31.788Z,10.99
2023-05-15T08:05:52.956Z,11.03
2023-05-15T08:11:13.963Z,11.09
2023-05-15T08:16:35.185Z,11.19
2023-05-15T08:21:55.847Z,11.23
2023-05-15T08:27:16.773Z,11.23
2023-05-15T08:32:37.742Z,11.20
2023-05-15T08:37:59.330Z,11.23
2023-05-15T08:43:22.758Z,11.46
2023-05-15T08:48:44.233Z,11.57
2023-05-15T08:54:07.427Z,11.76
2023-05-15T08:59:29.188Z,11.89
2023-05-15T09:04:51.757Z,11.88
2023-05-15T09:10:14.355Z,11.93
2023-05-15T09:15:35.407Z,12.09
2023-05-15T09:20:56.664Z,12.28
2023-05-15T09:26:17.414Z,12.29
2023-05-15T09:31:38.307Z,12.40
2023-05-15T09:37:00.948Z,12.53
2023-05-15T09:42:24.750Z,12.65
2023-05-15T09:47:47.351Z,12.65
2023-05-15T09:53:12.868Z,12.42
2023-05-15T09:58:35.348Z,12.42
2023-05-15T10:04:00.827Z,12.28
2023-05-15T10:09:33.774Z,12.17
2023-05-15T10:14:57.441Z,12.29
2023-05-15T10:20:26.221Z,12.27
2023-05-15T10:26:02.118Z,12.39
2023-05-15T10:31:25.393Z,12.61
2023-05-15T10:36:49.526Z,12.84
2023-05-15T10:42:13.546Z,13.08
2023-05-15T10:47:35.487Z,13.25
2023-05-15T10:52:56.693Z,13.43
2023-05-15T10:58:18.050Z,13.52
2023-05-15T11:03:48.583Z,13.60
2023-05-15T11:09:22.572Z,13.60
2023-05-15T11:15:04.568Z,13.73
2023-05-15T11:20:43.007Z,13.91
2023-05-15T11:26:05.785Z,14.10
2023-05-15T11:31:32.707Z,14.29
2023-05-15T11:36:53.580Z,14.21
2023-05-15T11:42:17.481Z,14.21
2023-05-15T11:47:38.525Z,14.27
2023-05-15T11:53:10.691Z,14.22
2023-05-15T11:58:32.002Z,14.35
2023-05-15T12:03:54.403Z,14.45
2023-05-15T12:09:17.568Z,14.63
2023-05-15T12:14:40.117Z,14.75
2023-05-15T12:20:01.445Z,14.83
2023-05-15T12:25:22.703Z,14.84
2023-05-15T12:30:43.930Z,14.91
2023-05-15T12:36:05.164Z,14.96
2023-05-15T12:41:29.563Z,15.04
2023-05-15T12:46:54.976Z,15.18
2023-05-15T12:52:16.717Z,15.32
2023-05-15T12:57:37.778Z,15.41
2023-05-15T13:02:59.603Z,15.57
2023-05-15T13:08:20.693Z,15.58
2023-05-15T13:13:43.595Z,15.70
2023-05-15T13:19:05.711Z,15.70
2023-05-15T13:24:27.111Z,15.78
2023-05-15T13:29:48.598Z,15.81
2023-05-15T13:35:10.453Z,15.92
2023-05-15T13:40:37.293Z,15.99
2023-05-15T13:45:58.331Z,16.06
2023-05-15T13:51:19.103Z,16.00
2023-05-15T13:56:39.940Z,16.06
2023-05-15T14:02:00.589Z,15.94
2023-05-15T14:07:24.678Z,15.67
2023-05-15T14:12:47.064Z,15.53
2023-05-15T14:18:08.177Z,15.44
2023-05-15T14:23:29.360Z,15.44
2023-05-15T14:28:50.850Z,15.58
2023-05-15T14:34:11.587Z,15.73
2023-05-15T14:39:32.863Z,15.92
2023-05-15T14:44:53.561Z,16.04
2023-05-15T14:50:14.305Z,16.03
2023-05-15T14:55:35.190Z,15.96
2023-05-15T15:00:56.486Z,15.90
2023-05-15T15:06:17.463Z,15.84
2023-05-15T15:11:38.399Z,15.81
2023-05-15T15:16:59.100Z,15.79
2023-05-15T15:22:19.878Z,15.72
2023-05-15T15:27:41.012Z,15.64
2023-05-15T15:33:02.003Z,15.66
2023-05-15T15:38:22.995Z,15.61
2023-05-15T15:43:44.032Z,15.62
2023-05-15T15:49:06.777Z,15.56
2023-05-15T15:54:29.016Z,15.58
2023-05-15T15:59:50.218Z,15.53
2023-05-15T16:05:11.079Z,15.58
2023-05-15T16:10:32.064Z,15.56
2023-05-15T16:15:53.149Z,15.54
2023-05-15T16:21:14.521Z,15.59
2023-05-15T16:26:38.028Z,15.54
2023-05-15T16:31:59.549Z,15.43
2023-05-15T16:37:23.629Z,15.41
2023-05-15T16:42:44.894Z,15.41
2023-05-15T16:48:06.310Z,15.42
2023-05-15T16:53:27.483Z,15.37
2023-05-15T16:58:48.439Z,15.34
2023-05-15T17:04:10.453Z,15.37
2023-05-15T17:09:31.226Z,15.41
2023-05-15T17:14:52.437Z,15.37
2023-05-15T17:20:13.824Z,15.34
2023-05-15T17:25:36.486Z,15.28
2023-05-15T17:30:57.259Z,15.28
2023-05-15T17:36:18.063Z,15.24
2023-05-15T17:41:39.229Z,15.22
2023-05-15T17:47:02.361Z,15.18
2023-05-15T17:52:23.266Z,15.19
2023-05-15T17:57:49.848Z,15.14
2023-05-15T18:03:11.361Z,15.16
2023-05-15T18:08:32.524Z,15.15
2023-05-15T18:13:53.421Z,15.16
2023-05-15T18:19:14.738Z,15.05
2023-05-15T18:24:35.784Z,14.99
2023-05-15T18:29:56.916Z,14.86
2023-05-15T18:35:18.345Z,14.77
2023-05-15T18:40:39.505Z,14.64
2023-05-15T18:46:00.595Z,14.58
2023-05-15T18:51:21.565Z,14.44
2023-05-15T18:56:43.273Z,14.36
2023-05-15T19:02:04.543Z,14.28
2023-05-15T19:07:28.826Z,14.26
2023-05-15T19:12:49.739Z,14.19
2023-05-15T19:18:11.051Z,14.06
2023-05-15T19:23:32.425Z,13.95
2023-05-15T19:28:53.448Z,13.92
2023-05-15T19:34:14.620Z,13.93
2023-05-15T19:39:36.045Z,13.86
2023-05-15T19:44:57.200Z,13.83
2023-05-15T19:50:18.776Z,13.78
2023-05-15T19:55:40.402Z,13.81
2023-05-15T20:01:01.647Z,13.77
2023-05-15T20:06:22.676Z,13.77
2023-05-15T20:11:43.705Z,13.68
2023-05-15T20:17:05.243Z,13.57
2023-05-15T20:22:26.572Z,13.53
2023-05-15T20:27:48.458Z,13.56
2023-05-15T20:33:10.023Z,13.50
2023-05-15T20:38:31.281Z,13.49
2023-05-15T20:43:52.224Z,13.47
2023-05-15T20:49:13.797Z,13.52
2023-05-15T20:54:35.706Z,13.39
2023-05-15T20:59:56.632Z,13.38
2023-05-15T21:05:19.743Z,13.29
2023-05-15T21:10:41.253Z,13.25
2023-05-15T21:16:02.301Z,13.21
2023-05-15T21:21:23.474Z,13.05
2023-05-15T21:26:44.436Z,13.07
2023-05-15T21:32:06.681Z,13.13
2023-05-15T21:37:32.563Z,12.95
2023-05-15T21:42:53.775Z,12.83
2023-05-15T21:48:15.081Z,12.72
2023-05-15T21:53:36.072Z,12.65
2023-05-15T21:58:57.323Z,12.59
2023-05-15T22:04:18.106Z,12.55
2023-05-15T22:09:38.967Z,12.47
2023-05-15T22:15:00.571Z,12.32
2023-05-15T22:20:21.509Z,12.23
2023-05-15T22:25:42.970Z,12.07
2023-05-15T22:31:04.356Z,12.13
2023-05-15T22:36:25.403Z,12.03
2023-05-15T22:41:47.637Z,12.08
2023-05-15T22:47:08.703Z,12.06
2023-05-15T22:52:29.446Z,12.16
2023-05-15T22:57:50.160Z,12.19
2023-05-15T23:03:12.576Z,12.16
2023-05-15T23:08:33.320Z,12.09
2023-05-15T23:13:54.803Z,12.04
2023-05-15T23:19:18.799Z,11.96
2023-05-15T23:24:39.840Z,11.85
2023-05-15T23:30:00.777Z,11.72
2023-05-15T23:35:21.896Z,11.55
2023-05-15T23:40:42.569Z,11.57
2023-05-15T23:46:03.476Z,11.46
2023-05-15T23:51:24.471Z,11.40
2023-05-15T23:56:45.876Z,11.40
